Time;durP1;ratioP1;P1;durP2;ratioP2;P2;SDS_P1;SDS_P2;PMS_P1;PMS_P2;Temp;Humidity;BMP_temperature;BMP_pressure;BME280_temperature;BME280_humidity;BME280_pressure;Samples;Min_cycle;Max_cycle;Signal;HPM_P1;HPM_P2
2023/08/28 00:02:10;;;;;;;10.18;5.78;;;19.90;99.90;;;;;;5062166;28;20412;-76
2023/08/28 00:04:36;;;;;;;10.70;5.85;;;19.90;99.90;;;;;;5054040;28;20502;-76
2023/08/28 00:07:02;;;;;;;15.93;6.68;;;19.90;99.90;;;;;;5059058;28;20094;-76
2023/08/28 00:09:27;;;;;;;7.80;5.45;;;19.90;99.90;;;;;;5050050;28;20060;-76
2023/08/28 00:11:57;;;;;;;11.35;6.57;;;19.80;99.90;;;;;;5059341;28;20467;-76
2023/08/28 00:14:24;;;;;;;9.05;5.13;;;19.80;99.90;;;;;;5053637;28;20049;-76
2023/08/28 00:16:49;;;;;;;10.50;5.55;;;19.80;99.90;;;;;;5061872;28;20020;-76
2023/08/28 00:19:15;;;;;;;8.45;5.57;;;19.80;99.90;;;;;;5058997;28;20098;-76
2023/08/28 00:21:41;;;;;;;8.45;6.57;;;19.80;99.90;;;;;;5056592;28;20047;-76
2023/08/28 00:24:06;;;;;;;10.77;6.25;;;19.90;99.90;;;;;;5049729;28;20033;-76
2023/08/28 00:26:32;;;;;;;9.80;6.13;;;19.80;99.90;;;;;;5055044;28;20154;-76
2023/08/28 00:28:58;;;;;;;9.90;6.35;;;20.00;99.90;;;;;;5049090;28;20040;-76
2023/08/28 00:31:23;;;;;;;13.55;7.30;;;20.00;99.90;;;;;;5055617;28;20028;-77
2023/08/28 00:33:49;;;;;;;11.55;6.63;;;20.10;99.90;;;;;;5058639;28;20037;-77
2023/08/28 00:36:15;;;;;;;13.02;7.25;;;20.10;99.90;;;;;;5056180;28;20035;-76
2023/08/28 00:38:41;;;;;;;11.45;7.25;;;20.20;99.90;;;;;;5052333;28;20040;-76
2023/08/28 00:41:07;;;;;;;10.05;5.47;;;20.10;99.90;;;;;;5056557;28;20086;-77
2023/08/28 00:43:33;;;;;;;6.95;4.95;;;19.90;99.90;;;;;;5057331;28;20517;-76
2023/08/28 00:46:00;;;;;;;8.55;4.53;;;19.80;99.90;;;;;;5054007;28;20389;-77
2023/08/28 00:48:27;;;;;;;9.57;4.50;;;19.80;99.90;;;;;;5051705;28;20032;-76
2023/08/28 00:50:53;;;;;;;8.57;4.68;;;19.70;99.90;;;;;;5056269;28;20074;-76
2023/08/28 00:53:20;;;;;;;10.13;4.80;;;19.80;99.90;;;;;;5052660;28;20116;-77
2023/08/28 00:55:46;;;;;;;10.02;5.22;;;19.80;99.90;;;;;;5058299;28;20040;-76
2023/08/28 00:58:12;;;;;;;8.88;5.70;;;19.80;99.90;;;;;;5052395;28;20028;-77
2023/08/28 01:00:40;;;;;;;8.88;5.22;;;19.80;99.90;;;;;;5056357;28;20446;-77
2023/08/28 01:03:06;;;;;;;9.75;5.10;;;19.80;99.90;;;;;;5054320;28;20040;-76
2023/08/28 01:05:52;;;;;;;10.88;6.18;;;19.80;99.90;;;;;;5054205;28;20032;-76
2023/08/28 01:08:38;;;;;;;8.13;4.95;;;19.70;99.90;;;;;;5053001;28;25309;-76
2023/08/28 01:11:16;;;;;;;9.80;5.05;;;19.70;99.90;;;;;;5047659;28;20082;-77
2023/08/28 01:13:52;;;;;;;12.77;7.28;;;19.70;99.90;;;;;;5056270;28;20040;-76
2023/08/28 01:16:21;;;;;;;9.18;5.93;;;19.60;99.90;;;;;;5062667;28;20364;-77
2023/08/28 01:18:48;;;;;;;12.75;5.75;;;19.70;99.90;;;;;;5051522;28;20029;-77
2023/08/28 01:21:14;;;;;;;11.23;5.38;;;19.60;99.90;;;;;;5056404;28;20035;-77
2023/08/28 01:23:47;;;;;;;9.73;5.70;;;19.50;99.90;;;;;;5051517;28;20086;-77
2023/08/28 01:26:13;;;;;;;9.20;5.47;;;19.40;99.90;;;;;;5059227;28;20040;-76
2023/08/28 01:28:39;;;;;;;8.90;6.10;;;19.40;99.90;;;;;;5055799;28;20052;-77
2023/08/28 01:31:04;;;;;;;9.80;5.05;;;19.40;99.90;;;;;;5049480;28;20118;-77
2023/08/28 01:33:31;;;;;;;12.32;6.60;;;19.30;99.90;;;;;;5051197;28;20479;-76
2023/08/28 01:36:33;;;;;;;9.88;5.95;;;19.30;99.90;;;;;;5048355;28;20483;-76
2023/08/28 01:39:04;;;;;;;11.60;6.07;;;19.30;99.90;;;;;;5059196;28;20028;-77
2023/08/28 01:41:30;;;;;;;15.32;6.32;;;19.40;99.90;;;;;;5052370;28;20437;-77
2023/08/28 01:44:01;;;;;;;8.82;5.70;;;19.30;99.90;;;;;;5056276;28;20387;-77
2023/08/28 01:46:33;;;;;;;9.77;5.57;;;19.30;99.90;;;;;;5052461;28;20035;-77
2023/08/28 01:48:59;;;;;;;9.77;5.18;;;19.30;99.90;;;;;;5048004;28;20029;-77
2023/08/28 01:51:25;;;;;;;11.20;6.25;;;19.20;99.90;;;;;;5048603;28;20391;-77
2023/08/28 01:53:52;;;;;;;9.45;6.00;;;19.20;99.90;;;;;;5049833;28;20040;-77
2023/08/28 01:56:20;;;;;;;11.02;6.32;;;19.20;99.90;;;;;;5055452;28;20550;-77
2023/08/28 01:58:49;;;;;;;10.85;6.55;;;19.10;99.90;;;;;;5056656;28;20394;-77
2023/08/28 02:01:15;;;;;;;16.70;7.22;;;19.10;99.90;;;;;;5056392;28;20170;-76
2023/08/28 02:03:40;;;;;;;11.25;7.13;;;19.10;99.90;;;;;;5048527;28;20108;-77
2023/08/28 02:06:06;;;;;;;11.73;7.18;;;19.00;99.90;;;;;;5048294;28;20027;-77
2023/08/28 02:08:32;;;;;;;8.95;5.63;;;19.00;99.90;;;;;;5049494;28;20078;-77
2023/08/28 02:10:58;;;;;;;12.68;5.60;;;18.90;99.90;;;;;;5054581;28;20086;-77
2023/08/28 02:13:24;;;;;;;10.10;5.97;;;18.90;99.90;;;;;;5057288;28;20117;-77
2023/08/28 02:15:49;;;;;;;9.07;5.28;;;18.80;99.90;;;;;;5059953;28;20372;-77
2023/08/28 02:18:15;;;;;;;14.20;6.32;;;18.80;99.90;;;;;;5053825;28;20031;-77
2023/08/28 02:20:41;;;;;;;9.80;5.53;;;18.90;99.90;;;;;;5049380;28;20033;-77
2023/08/28 02:23:07;;;;;;;9.10;5.75;;;18.90;99.90;;;;;;5055447;28;20033;-77
2023/08/28 02:25:32;;;;;;;9.23;6.38;;;19.10;99.90;;;;;;5050161;28;20091;-77
2023/08/28 02:27:58;;;;;;;10.52;6.53;;;19.00;99.90;;;;;;5055631;28;20398;-77
2023/08/28 02:30:23;;;;;;;12.65;6.63;;;19.00;99.90;;;;;;5047534;28;20086;-76
2023/08/28 02:32:49;;;;;;;11.05;5.07;;;19.00;99.90;;;;;;5047938;28;20021;-77
2023/08/28 02:35:15;;;;;;;9.45;5.50;;;19.10;99.90;;;;;;5055134;28;20147;-77
2023/08/28 02:37:40;;;;;;;10.20;6.55;;;19.10;99.90;;;;;;5055866;28;20032;-77
2023/08/28 02:40:09;;;;;;;8.35;5.05;;;19.10;99.90;;;;;;5060618;28;20033;-77
2023/08/28 02:42:35;;;;;;;7.85;5.20;;;19.00;99.90;;;;;;5053311;28;20113;-77
2023/08/28 02:45:01;;;;;;;8.30;5.05;;;19.00;99.90;;;;;;5059252;28;20483;-77
2023/08/28 02:47:26;;;;;;;9.30;4.97;;;18.90;99.90;;;;;;5052372;28;20025;-77
2023/08/28 02:49:52;;;;;;;7.38;4.30;;;18.90;99.90;;;;;;5057890;28;20028;-77
2023/08/28 02:52:18;;;;;;;7.50;3.67;;;18.90;99.90;;;;;;5054503;28;20100;-77
2023/08/28 02:54:44;;;;;;;9.95;6.00;;;18.90;99.90;;;;;;5047385;28;20040;-77
2023/08/28 02:57:09;;;;;;;7.60;4.85;;;18.90;99.90;;;;;;5049347;28;20028;-77
2023/08/28 02:59:35;;;;;;;28.90;5.85;;;18.80;99.90;;;;;;5053297;28;20044;-77
2023/08/28 03:02:01;;;;;;;7.82;4.55;;;18.80;99.90;;;;;;5046031;28;20079;-77
2023/08/28 03:04:26;;;;;;;6.47;3.97;;;18.80;99.90;;;;;;5047287;28;20057;-77
2023/08/28 03:06:52;;;;;;;8.13;4.15;;;18.70;99.90;;;;;;5048203;28;20104;-76
2023/08/28 03:09:18;;;;;;;7.50;4.22;;;18.80;99.90;;;;;;5049897;28;20028;-77
2023/08/28 03:11:44;;;;;;;8.40;3.72;;;18.80;99.90;;;;;;5043274;28;20057;-77
2023/08/28 03:14:10;;;;;;;9.95;4.07;;;18.50;99.90;;;;;;5056175;28;20031;-77
2023/08/28 03:16:35;;;;;;;5.53;3.17;;;18.60;99.90;;;;;;5046584;28;20029;-76
2023/08/28 03:19:01;;;;;;;8.90;4.10;;;18.60;99.90;;;;;;5043319;28;20187;-77
2023/08/28 03:21:27;;;;;;;8.70;4.63;;;18.60;99.90;;;;;;5047268;28;20075;-77
2023/08/28 03:23:52;;;;;;;6.70;4.18;;;18.60;99.90;;;;;;5059447;28;20074;-77
2023/08/28 03:26:18;;;;;;;8.88;3.92;;;18.50;99.90;;;;;;5051721;28;20957;-77
2023/08/28 03:28:44;;;;;;;10.25;4.65;;;18.40;99.90;;;;;;5057270;28;20490;-77
2023/08/28 03:31:09;;;;;;;6.90;4.10;;;18.50;99.90;;;;;;5050022;28;20032;-77
2023/08/28 03:33:35;;;;;;;8.82;4.25;;;18.60;99.90;;;;;;5046554;28;20047;-77
2023/08/28 03:36:03;;;;;;;5.55;2.97;;;18.60;99.90;;;;;;5048130;28;20124;-78
2023/08/28 03:38:28;;;;;;;7.47;4.00;;;18.60;99.90;;;;;;5050027;28;20025;-77
2023/08/28 03:40:54;;;;;;;8.82;3.20;;;18.60;99.90;;;;;;5045698;28;20025;-77
2023/08/28 03:43:20;;;;;;;5.93;3.13;;;18.70;99.90;;;;;;5046742;28;20033;-76
2023/08/28 03:45:46;;;;;;;6.70;2.85;;;18.70;99.90;;;;;;5053072;28;20557;-76
2023/08/28 03:48:11;;;;;;;6.55;2.63;;;18.70;99.90;;;;;;5048682;28;20146;-77
2023/08/28 03:50:37;;;;;;;5.32;2.33;;;18.70;99.90;;;;;;5054259;28;20523;-76
2023/08/28 03:53:03;;;;;;;4.00;2.17;;;18.70;99.90;;;;;;5056169;28;20090;-77
2023/08/28 03:55:31;;;;;;;5.40;2.50;;;18.60;99.90;;;;;;5055752;28;20115;-77
2023/08/28 03:57:58;;;;;;;4.72;2.25;;;18.60;99.90;;;;;;5058283;28;20108;-77
2023/08/28 04:00:25;;;;;;;4.22;2.20;;;18.50;99.90;;;;;;5052857;28;20094;-77
2023/08/28 04:02:51;;;;;;;3.05;1.75;;;18.50;99.90;;;;;;5057573;28;20072;-76
2023/08/28 04:05:17;;;;;;;4.85;1.70;;;18.60;99.90;;;;;;5045955;28;20067;-77
2023/08/28 04:07:43;;;;;;;4.18;1.65;;;18.70;99.90;;;;;;5060071;28;20047;-77
2023/08/28 04:10:10;;;;;;;5.25;2.40;;;18.60;99.90;;;;;;5048938;28;20044;-76
2023/08/28 04:12:36;;;;;;;4.30;2.70;;;18.50;99.90;;;;;;5060278;28;20522;-76
2023/08/28 04:15:03;;;;;;;7.43;3.88;;;18.50;99.90;;;;;;5055236;28;20388;-76
2023/08/28 04:17:29;;;;;;;7.50;3.35;;;18.50;99.90;;;;;;5053517;28;20021;-76
2023/08/28 04:19:56;;;;;;;7.05;4.38;;;18.40;99.90;;;;;;5046789;28;20133;-77
2023/08/28 04:22:22;;;;;;;6.93;3.42;;;18.40;99.90;;;;;;5048762;28;20060;-76
2023/08/28 04:24:50;;;;;;;6.63;2.60;;;18.30;99.90;;;;;;5048099;28;20543;-76
2023/08/28 04:27:16;;;;;;;3.03;1.67;;;18.40;99.90;;;;;;5054628;28;20078;-76
2023/08/28 04:29:42;;;;;;;5.43;2.33;;;18.40;99.90;;;;;;5053226;28;20095;-77
2023/08/28 04:32:09;;;;;;;4.00;2.08;;;18.40;99.90;;;;;;5044655;28;20021;-77
2023/08/28 04:34:35;;;;;;;3.53;1.90;;;18.40;99.90;;;;;;5059635;28;20055;-77
2023/08/28 04:37:01;;;;;;;5.60;2.17;;;18.40;99.90;;;;;;5047972;28;20032;-77
2023/08/28 04:39:28;;;;;;;5.25;1.83;;;18.50;99.90;;;;;;5044747;28;20040;-77
2023/08/28 04:41:53;;;;;;;3.40;1.77;;;18.50;99.90;;;;;;5056002;28;20052;-77
2023/08/28 04:44:20;;;;;;;3.13;1.50;;;18.50;99.90;;;;;;5055874;28;20033;-76
2023/08/28 04:46:48;;;;;;;3.33;1.50;;;18.40;99.90;;;;;;5052561;28;20489;-76
2023/08/28 04:49:17;;;;;;;4.50;1.58;;;18.40;99.90;;;;;;5047071;28;20102;-77
2023/08/28 04:51:43;;;;;;;2.85;1.50;;;18.50;99.90;;;;;;5054254;28;20120;-75
2023/08/28 04:54:08;;;;;;;4.25;1.83;;;18.40;99.90;;;;;;5052453;28;20111;-75
2023/08/28 04:56:34;;;;;;;3.80;1.77;;;18.50;99.90;;;;;;5061033;28;20421;-75
2023/08/28 04:59:00;;;;;;;3.40;1.45;;;18.50;99.90;;;;;;5051994;28;20515;-75
2023/08/28 05:01:25;;;;;;;5.63;2.17;;;18.30;99.90;;;;;;5046835;28;20086;-74
2023/08/28 05:03:51;;;;;;;4.05;1.33;;;18.40;99.90;;;;;;5052189;28;20446;-75
2023/08/28 05:06:17;;;;;;;3.05;1.58;;;18.50;99.90;;;;;;5052212;28;20531;-75
2023/08/28 05:08:42;;;;;;;3.72;1.83;;;18.40;99.90;;;;;;5046733;28;20082;-77
2023/08/28 05:11:08;;;;;;;3.88;1.65;;;18.60;99.90;;;;;;5052006;28;20040;-77
2023/08/28 05:13:34;;;;;;;3.22;1.55;;;18.60;99.90;;;;;;5050939;28;20032;-77
2023/08/28 05:16:00;;;;;;;5.32;1.33;;;18.60;99.90;;;;;;5045226;28;20032;-76
2023/08/28 05:18:26;;;;;;;2.63;1.30;;;18.60;99.90;;;;;;5057021;28;20056;-77
2023/08/28 05:20:51;;;;;;;4.70;1.40;;;18.60;99.90;;;;;;5051823;28;20025;-77
2023/08/28 05:23:24;;;;;;;3.95;1.90;;;18.40;99.90;;;;;;5045510;28;20504;-77
2023/08/28 05:25:54;;;;;;;5.60;1.80;;;18.30;99.90;;;;;;5061133;28;20078;-76
2023/08/28 05:28:19;;;;;;;15.25;2.65;;;18.40;99.90;;;;;;5045781;28;20032;-75
2023/08/28 05:30:45;;;;;;;3.95;1.90;;;18.30;99.90;;;;;;5043540;28;20033;-75
2023/08/28 05:33:11;;;;;;;4.45;2.30;;;18.40;99.90;;;;;;5138324;23;20016;-84
2023/08/28 05:35:36;;;;;;;6.05;2.72;;;18.50;99.90;;;;;;4991866;28;20069;-83
2023/08/28 05:38:03;;;;;;;5.22;1.65;;;18.50;99.90;;;;;;4993061;28;20490;-79
2023/08/28 05:40:28;;;;;;;4.85;1.35;;;18.40;99.90;;;;;;4987094;28;20519;-80
2023/08/28 05:42:54;;;;;;;5.20;1.80;;;18.40;99.90;;;;;;4988222;28;20042;-80
2023/08/28 05:45:20;;;;;;;5.32;1.60;;;18.40;99.90;;;;;;4996208;28;20038;-80
2023/08/28 05:47:45;;;;;;;3.75;1.75;;;18.40;99.90;;;;;;4992860;28;20447;-80
2023/08/28 05:50:11;;;;;;;5.82;2.00;;;18.40;99.90;;;;;;4988435;28;20040;-80
2023/08/28 05:52:37;;;;;;;3.53;1.75;;;18.40;99.90;;;;;;4985865;28;20038;-80
2023/08/28 05:55:06;;;;;;;4.30;1.90;;;18.40;99.90;;;;;;4988917;28;20026;-80
2023/08/28 05:57:33;;;;;;;2.50;1.35;;;18.30;99.90;;;;;;4993475;28;20116;-80
2023/08/28 05:59:58;;;;;;;3.22;1.58;;;18.40;99.90;;;;;;4983287;28;20041;-80
2023/08/28 06:02:24;;;;;;;3.03;1.65;;;18.40;99.90;;;;;;4994874;28;20038;-80
2023/08/28 06:04:52;;;;;;;3.65;2.05;;;18.40;99.90;;;;;;4983073;28;20046;-83
2023/08/28 06:07:17;;;;;;;4.32;2.17;;;18.40;99.90;;;;;;4990420;28;21006;-83
2023/08/28 06:09:43;;;;;;;5.30;2.80;;;18.30;99.90;;;;;;4989492;28;20113;-80
2023/08/28 06:12:09;;;;;;;76.47;7.35;;;18.50;99.90;;;;;;4988724;28;20036;-80
2023/08/28 06:14:36;;;;;;;10.27;3.40;;;18.50;99.90;;;;;;4991430;28;20091;-79
2023/08/28 06:17:03;;;;;;;3.97;2.63;;;18.30;99.90;;;;;;4989092;28;20121;-79
2023/08/28 06:19:29;;;;;;;5.50;2.47;;;18.20;99.90;;;;;;4986675;28;20041;-81
2023/08/28 06:21:55;;;;;;;4.60;2.40;;;18.20;99.90;;;;;;4982822;28;21959;-79
2023/08/28 06:24:21;;;;;;;5.80;2.47;;;18.40;99.90;;;;;;4992213;28;20033;-82
2023/08/28 06:26:47;;;;;;;4.50;2.58;;;18.40;99.90;;;;;;5003213;28;20030;-84
2023/08/28 06:29:12;;;;;;;3.70;2.50;;;18.40;99.90;;;;;;4990172;28;20077;-83
2023/08/28 06:31:38;;;;;;;3.72;2.30;;;18.30;99.90;;;;;;4986759;28;20033;-83
2023/08/28 06:34:04;;;;;;;3.97;2.00;;;18.10;99.90;;;;;;4990163;28;20045;-81
2023/08/28 06:36:30;;;;;;;3.60;2.10;;;18.20;99.90;;;;;;4999074;28;20041;-82
2023/08/28 06:38:56;;;;;;;3.70;2.00;;;18.40;99.90;;;;;;4987209;28;20086;-82
2023/08/28 06:41:22;;;;;;;4.03;2.50;;;18.40;99.90;;;;;;4987320;28;20041;-81
2023/08/28 06:43:48;;;;;;;8.05;3.10;;;18.30;99.90;;;;;;5000536;28;20033;-81
2023/08/28 06:46:14;;;;;;;4.90;3.30;;;18.30;99.90;;;;;;4995134;28;20065;-81
2023/08/28 06:48:43;;;;;;;6.55;3.60;;;18.20;99.90;;;;;;4987480;28;20440;-82
2023/08/28 06:51:10;;;;;;;4.55;2.42;;;18.20;99.90;;;;;;4988428;28;20069;-83
2023/08/28 06:53:35;;;;;;;4.85;2.70;;;18.30;99.90;;;;;;4988791;28;20033;-83
2023/08/28 06:56:01;;;;;;;3.70;2.28;;;18.40;99.90;;;;;;4998418;28;20541;-83
2023/08/28 06:58:27;;;;;;;3.08;1.40;;;18.40;99.90;;;;;;4992598;28;21654;-80
2023/08/28 07:00:52;;;;;;;2.78;1.50;;;18.30;99.90;;;;;;4997242;28;20444;-83
2023/08/28 07:03:18;;;;;;;3.92;1.08;;;18.30;99.90;;;;;;4988188;28;20046;-85
2023/08/28 07:05:44;;;;;;;2.63;1.45;;;18.30;99.90;;;;;;4988829;28;20030;-83
2023/08/28 07:08:10;;;;;;;4.15;1.27;;;18.50;99.90;;;;;;4994138;28;20426;-90
2023/08/28 07:10:35;;;;;;;2.17;1.30;;;18.50;99.90;;;;;;5003159;28;20050;-86
2023/08/28 07:13:01;;;;;;;3.47;0.90;;;18.50;99.90;;;;;;4997628;28;20052;-82
2023/08/28 07:15:29;;;;;;;2.53;1.10;;;18.70;99.90;;;;;;4988898;28;20095;-82
2023/08/28 07:17:55;;;;;;;2.50;1.10;;;18.80;99.90;;;;;;4995964;28;20671;-81
2023/08/28 07:20:23;;;;;;;3.00;0.95;;;18.70;99.90;;;;;;4989693;28;20042;-81
2023/08/28 07:22:54;;;;;;;2.28;1.17;;;18.80;99.90;;;;;;4984102;28;20088;-82
2023/08/28 07:25:22;;;;;;;3.17;1.08;;;18.80;99.90;;;;;;4993979;28;20545;-83
2023/08/28 07:27:51;;;;;;;2.55;1.10;;;18.90;99.90;;;;;;4987464;28;20113;-82
2023/08/28 07:30:18;;;;;;;2.08;1.30;;;19.10;99.90;;;;;;4994464;28;20038;-83
2023/08/28 07:32:44;;;;;;;2.47;0.90;;;19.10;99.90;;;;;;4989837;28;20034;-82
2023/08/28 07:35:10;;;;;;;1.70;0.68;;;19.00;99.90;;;;;;4991416;28;20054;-80
2023/08/28 07:37:37;;;;;;;1.85;1.05;;;18.70;99.90;;;;;;5005205;28;20084;-80
2023/08/28 07:40:06;;;;;;;2.35;1.00;;;18.70;99.90;;;;;;4999356;28;20034;-80
2023/08/28 07:42:33;;;;;;;2.38;0.80;;;18.70;99.90;;;;;;4993995;28;20049;-80
2023/08/28 07:44:59;;;;;;;3.08;1.02;;;18.60;99.90;;;;;;4979969;28;20386;-80
2023/08/28 07:47:26;;;;;;;1.88;0.80;;;18.70;99.90;;;;;;4992813;28;20057;-80
2023/08/28 07:49:53;;;;;;;1.98;1.02;;;18.70;99.90;;;;;;4992636;28;20061;-79
2023/08/28 07:52:19;;;;;;;3.30;1.20;;;18.70;99.90;;;;;;4986089;28;20027;-79
2023/08/28 07:54:45;;;;;;;2.58;1.10;;;18.60;99.90;;;;;;4988624;28;20030;-79
2023/08/28 07:57:11;;;;;;;2.13;1.15;;;18.60;99.90;;;;;;4994077;28;20040;-83
2023/08/28 07:59:37;;;;;;;3.65;1.30;;;18.60;99.90;;;;;;4986567;28;20049;-82
2023/08/28 08:02:04;;;;;;;4.53;1.77;;;18.90;99.90;;;;;;4986816;28;20619;-82
2023/08/28 08:04:31;;;;;;;8.20;2.92;;;18.90;99.90;;;;;;4987922;28;20033;-81
2023/08/28 08:06:56;;;;;;;5.05;3.30;;;19.00;99.90;;;;;;5009259;28;20383;-83
2023/08/28 08:09:23;;;;;;;5.85;3.20;;;19.00;99.90;;;;;;4990800;28;20034;-82
2023/08/28 08:11:49;;;;;;;4.32;2.67;;;18.90;99.90;;;;;;4990072;28;20103;-82
2023/08/28 08:14:14;;;;;;;6.43;3.30;;;18.90;99.90;;;;;;4999790;28;20054;-81
2023/08/28 08:16:40;;;;;;;5.43;3.10;;;18.80;99.90;;;;;;4989773;28;20499;-81
2023/08/28 08:19:06;;;;;;;5.18;3.35;;;18.80;99.90;;;;;;4991184;28;20049;-81
2023/08/28 08:21:32;;;;;;;4.07;2.33;;;18.90;99.90;;;;;;4997011;28;20515;-82
2023/08/28 08:23:57;;;;;;;4.82;2.20;;;18.80;99.90;;;;;;4991707;28;20026;-81
2023/08/28 08:26:23;;;;;;;5.55;2.28;;;18.80;99.90;;;;;;5000456;28;20037;-82
2023/08/28 08:28:49;;;;;;;3.30;2.10;;;18.80;99.90;;;;;;4995541;28;20031;-82
2023/08/28 08:31:14;;;;;;;4.20;2.20;;;19.00;99.90;;;;;;4990815;28;20027;-82
2023/08/28 08:33:40;;;;;;;3.40;1.80;;;19.50;99.90;;;;;;4995900;28;20042;-81
2023/08/28 08:36:06;;;;;;;3.13;1.77;;;19.70;99.90;;;;;;4995108;28;20026;-82
2023/08/28 08:38:32;;;;;;;3.53;1.45;;;19.70;99.90;;;;;;4990255;28;20492;-80
2023/08/28 08:40:58;;;;;;;2.90;1.70;;;19.60;99.90;;;;;;4992250;28;20026;-81
2023/08/28 08:43:27;;;;;;;3.47;1.70;;;19.60;99.90;;;;;;4985546;28;20034;-80
2023/08/28 08:46:04;;;;;;;5.30;2.10;;;19.50;99.90;;;;;;4993079;28;20027;-81
2023/08/28 08:48:33;;;;;;;3.58;2.40;;;19.30;99.90;;;;;;4986631;28;20038;-81
2023/08/28 08:51:06;;;;;;;4.18;2.33;;;19.00;99.90;;;;;;4996111;28;20058;-81
2023/08/28 08:53:53;;;;;;;4.15;2.63;;;19.10;99.90;;;;;;4986556;28;20036;-82
2023/08/28 08:56:21;;;;;;;5.47;2.75;;;19.10;99.90;;;;;;4989580;28;20462;-81
2023/08/28 08:58:47;;;;;;;4.25;2.90;;;19.10;99.90;;;;;;4993563;28;20026;-81
2023/08/28 09:01:14;;;;;;;3.78;2.60;;;19.30;99.90;;;;;;4989084;28;20531;-81
2023/08/28 09:03:41;;;;;;;6.40;2.90;;;19.40;99.90;;;;;;4989026;28;20057;-81
2023/08/28 09:06:07;;;;;;;4.20;2.70;;;19.60;99.90;;;;;;4997109;28;20361;-81
2023/08/28 09:08:38;;;;;;;6.50;2.88;;;19.50;99.90;;;;;;4984877;28;20065;-82
2023/08/28 09:11:08;;;;;;;3.80;2.58;;;19.50;99.90;;;;;;4987811;28;20558;-81
2023/08/28 09:13:38;;;;;;;5.00;2.90;;;20.80;99.90;;;;;;4994473;28;20053;-80
2023/08/28 09:16:04;;;;;;;2.88;1.83;;;20.50;99.90;;;;;;4998029;28;20095;-80
2023/08/28 09:18:30;;;;;;;8.55;4.47;;;20.20;99.90;;;;;;4993338;28;20479;-81
2023/08/28 09:21:12;;;;;;;4.82;2.58;;;20.40;99.90;;;;;;4997322;28;20053;-81
2023/08/28 09:23:43;;;;;;;3.28;2.20;;;20.10;99.90;;;;;;4992464;28;20054;-81
2023/08/28 09:26:12;;;;;;;5.90;3.03;;;20.20;99.90;;;;;;4984662;28;20052;-81
2023/08/28 09:28:38;;;;;;;2.80;1.70;;;20.30;99.90;;;;;;4984916;28;20026;-81
2023/08/28 09:31:04;;;;;;;4.47;2.40;;;21.00;99.90;;;;;;4985766;28;20030;-82
2023/08/28 09:33:45;;;;;;;3.10;2.00;;;20.90;99.90;;;;;;4988140;28;20447;-82
2023/08/28 09:36:18;;;;;;;5.35;2.42;;;20.40;99.90;;;;;;4988452;28;20038;-83
2023/08/28 09:38:44;;;;;;;14.90;5.10;;;20.10;99.90;;;;;;4994316;28;20023;-81
2023/08/28 09:41:10;;;;;;;3.75;2.10;;;19.90;99.90;;;;;;5004732;28;20681;-81
2023/08/28 09:43:36;;;;;;;9.68;4.00;;;19.90;99.90;;;;;;4984702;28;20069;-81
2023/08/28 09:46:04;;;;;;;4.47;1.73;;;20.20;99.90;;;;;;4989898;28;20133;-81
2023/08/28 09:48:34;;;;;;;3.35;1.60;;;20.00;99.90;;;;;;4999963;28;20032;-81
2023/08/28 09:51:03;;;;;;;3.05;1.48;;;20.00;99.90;;;;;;4989784;28;20091;-81
2023/08/28 09:53:30;;;;;;;2.60;1.30;;;20.10;99.90;;;;;;4981850;28;20070;-81
2023/08/28 09:55:57;;;;;;;2.67;1.10;;;20.70;99.90;;;;;;4986060;28;20038;-81
2023/08/28 09:58:24;;;;;;;3.42;1.60;;;20.80;99.90;;;;;;4992332;28;20053;-81
2023/08/28 10:00:51;;;;;;;3.45;1.65;;;20.80;99.90;;;;;;4984091;28;20415;-81
2023/08/28 10:03:17;;;;;;;3.72;2.10;;;20.90;99.90;;;;;;4988540;28;20035;-82
2023/08/28 10:05:45;;;;;;;3.17;1.98;;;21.10;99.90;;;;;;4992797;28;20034;-81
2023/08/28 10:08:14;;;;;;;3.60;1.90;;;20.80;99.90;;;;;;4991215;28;20038;-82
2023/08/28 10:10:41;;;;;;;3.75;1.90;;;21.00;99.90;;;;;;4997079;28;20041;-81
2023/08/28 10:13:13;;;;;;;3.22;1.83;;;21.20;99.90;;;;;;4989009;28;20061;-81
2023/08/28 10:15:57;;;;;;;2.67;1.38;;;21.30;99.90;;;;;;4992225;28;20030;-81
2023/08/28 10:18:37;;;;;;;3.65;1.77;;;21.30;99.90;;;;;;4997196;28;20026;-82
2023/08/28 10:21:04;;;;;;;3.35;1.58;;;21.20;99.90;;;;;;4994423;28;20056;-81
2023/08/28 10:23:31;;;;;;;3.00;1.80;;;21.10;99.90;;;;;;4991630;28;20026;-80
2023/08/28 10:25:58;;;;;;;2.28;1.33;;;20.90;99.90;;;;;;4993424;28;20544;-81
2023/08/28 10:28:25;;;;;;;3.83;1.50;;;20.90;99.90;;;;;;4995914;28;20057;-81
2023/08/28 10:30:52;;;;;;;3.70;1.90;;;20.90;99.90;;;;;;4996704;28;20464;-81
2023/08/28 10:33:21;;;;;;;3.85;1.75;;;21.10;99.90;;;;;;4988165;28;20026;-81
2023/08/28 10:35:52;;;;;;;2.70;1.60;;;21.50;99.90;;;;;;4996428;28;20808;-81
2023/08/28 10:38:20;;;;;;;2.63;1.17;;;21.70;99.90;;;;;;4999045;28;20029;-81
2023/08/28 10:40:55;;;;;;;2.50;1.38;;;21.70;99.90;;;;;;4997990;28;20066;-81
2023/08/28 10:43:23;;;;;;;1.33;0.90;;;21.70;99.90;;;;;;4995590;28;20093;-81
2023/08/28 10:45:57;;;;;;;2.67;1.15;;;21.50;99.90;;;;;;4994841;28;20030;-81
2023/08/28 10:48:23;;;;;;;;;;;21.50;99.90;;;;;;4991382;28;20054;-81
2023/08/28 10:50:55;;;;;;;2.83;1.20;;;21.30;99.90;;;;;;4997222;28;19948;-81
2023/08/28 10:53:22;;;;;;;2.92;1.48;;;21.40;99.90;;;;;;4994724;28;20030;-80
2023/08/28 10:56:05;;;;;;;2.97;1.33;;;21.40;99.90;;;;;;5001105;28;20093;-82
2023/08/28 10:58:32;;;;;;;3.90;1.55;;;21.50;99.90;;;;;;4997146;28;20034;-81
2023/08/28 11:01:17;;;;;;;2.53;1.30;;;21.90;99.90;;;;;;4996733;28;20030;-81
2023/08/28 11:03:58;;;;;;;3.15;1.40;;;22.20;99.90;;;;;;4995781;28;20520;-81
2023/08/28 11:06:43;;;;;;;2.70;1.27;;;22.40;99.90;;;;;;4991763;28;20034;-81
2023/08/28 11:09:27;;;;;;;3.33;1.55;;;22.40;99.90;;;;;;5000343;28;20034;-82
2023/08/28 11:11:59;;;;;;;3.13;1.42;;;22.10;99.90;;;;;;4989462;28;20057;-82
2023/08/28 11:14:32;;;;;;;2.45;1.33;;;22.00;99.90;;;;;;5001887;28;20379;-82
2023/08/28 11:17:11;;;;;;;2.45;1.30;;;21.80;99.90;;;;;;4997206;28;20044;-82
2023/08/28 11:19:59;;;;;;;2.63;1.20;;;21.80;99.90;;;;;;4998057;28;20030;-81
2023/08/28 11:22:29;;;;;;;3.25;1.60;;;21.90;99.90;;;;;;4986292;28;20057;-83
2023/08/28 11:24:55;;;;;;;3.40;1.45;;;21.90;99.90;;;;;;4994374;28;20026;-82
2023/08/28 11:27:43;;;;;;;1.95;1.00;;;22.00;99.90;;;;;;4995546;28;20030;-83
2023/08/28 11:30:10;;;;;;;2.38;1.20;;;21.80;99.90;;;;;;4988045;28;20026;-82
2023/08/28 11:32:38;;;;;;;2.80;1.20;;;21.90;99.90;;;;;;4985323;28;20072;-82
2023/08/28 11:35:07;;;;;;;2.67;1.23;;;21.90;99.90;;;;;;4989763;28;20129;-82
2023/08/28 11:37:35;;;;;;;2.20;1.10;;;22.00;99.90;;;;;;5000644;28;20030;-82
2023/08/28 11:40:06;;;;;;;2.58;1.40;;;22.10;99.90;;;;;;4992075;28;20062;-81
2023/08/28 11:42:35;;;;;;;2.28;1.23;;;21.90;99.90;;;;;;4986417;28;20089;-81
2023/08/28 11:45:04;;;;;;;2.42;1.20;;;21.70;99.90;;;;;;4988076;28;20034;-82
2023/08/28 11:47:31;;;;;;;4.95;1.40;;;21.60;99.90;;;;;;4995662;28;20022;-81
2023/08/28 11:49:58;;;;;;;4.10;1.60;;;21.40;99.90;;;;;;5001282;28;20420;-82
2023/08/28 11:52:25;;;;;;;3.42;1.65;;;21.40;99.90;;;;;;4995816;28;20018;-82
2023/08/28 11:54:52;;;;;;;3.17;1.40;;;21.40;99.90;;;;;;4998900;28;20064;-80
2023/08/28 11:57:19;;;;;;;2.60;1.30;;;21.30;99.90;;;;;;4987151;28;20037;-81
2023/08/28 11:59:47;;;;;;;4.43;1.52;;;21.20;99.90;;;;;;4993898;28;20081;-81
2023/08/28 12:02:13;;;;;;;3.28;1.52;;;21.10;99.90;;;;;;4986153;28;20046;-80
2023/08/28 12:04:42;;;;;;;2.72;1.50;;;21.00;99.90;;;;;;4986963;28;20038;-81
2023/08/28 12:07:18;;;;;;;5.72;1.75;;;20.70;99.90;;;;;;4993588;28;20027;-81
2023/08/28 12:09:46;;;;;;;3.83;1.60;;;20.40;99.90;;;;;;4993537;28;20116;-80
2023/08/28 12:12:14;;;;;;;2.65;1.58;;;20.30;99.90;;;;;;4986820;28;20949;-81
2023/08/28 12:14:43;;;;;;;3.53;1.73;;;20.50;99.90;;;;;;4993654;28;20135;-83
2023/08/28 12:17:13;;;;;;;5.32;1.70;;;20.50;99.90;;;;;;4994827;28;20539;-84
2023/08/28 12:19:39;;;;;;;4.07;1.90;;;20.50;99.90;;;;;;4993857;28;20046;-83
2023/08/28 12:22:05;;;;;;;5.00;1.83;;;20.40;99.90;;;;;;4987412;28;20062;-84
2023/08/28 12:24:31;;;;;;;4.43;2.00;;;20.40;99.90;;;;;;5002887;28;20113;-81
2023/08/28 12:26:58;;;;;;;4.22;1.95;;;20.50;99.90;;;;;;4992017;28;20109;-82
2023/08/28 12:29:24;;;;;;;5.25;2.03;;;20.50;99.90;;;;;;4999380;28;20089;-82
2023/08/28 12:31:50;;;;;;;2.72;1.42;;;20.40;99.90;;;;;;5002782;28;20026;-82
2023/08/28 12:34:16;;;;;;;7.15;2.88;;;20.30;99.90;;;;;;4995377;28;20076;-83
2023/08/28 12:36:45;;;;;;;3.35;2.03;;;20.30;99.90;;;;;;4996203;28;20073;-82
2023/08/28 12:39:21;;;;;;;3.15;1.42;;;20.40;99.90;;;;;;4987080;28;20029;-82
2023/08/28 12:41:54;;;;;;;3.72;2.00;;;20.20;99.90;;;;;;4992234;28;20033;-82
2023/08/28 12:44:21;;;;;;;2.63;1.38;;;20.30;99.90;;;;;;4987594;28;20061;-82
2023/08/28 12:46:48;;;;;;;3.88;2.17;;;20.30;99.90;;;;;;4985837;28;20036;-82
2023/08/28 12:49:16;;;;;;;4.78;1.80;;;20.40;99.90;;;;;;4993725;28;20064;-82